sensor_id;sensor_type;location;lat;lon;timestamp;P1;durP1;ratioP1;P2;durP2;ratioP2
13741;SDS011;8461;52.356;10.704;2023-02-12T00:01:32;11.30;;;9.60;;
13741;SDS011;8461;52.356;10.704;2023-02-12T00:03:58;10.63;;;8.70;;
13741;SDS011;8461;52.356;10.704;2023-02-12T00:06:24;12.43;;;9.33;;
13741;SDS011;8461;52.356;10.704;2023-02-12T00:08:51;12.77;;;10.10;;
13741;SDS011;8461;52.356;10.704;2023-02-12T00:11:19;10.20;;;8.97;;
13741;SDS011;8461;52.356;10.704;2023-02-12T00:13:46;10.67;;;9.30;;
13741;SDS011;8461;52.356;10.704;2023-02-12T00:16:14;12.80;;;10.17;;
13741;SDS011;8461;52.356;10.704;2023-02-12T00:18:42;11.47;;;9.50;;
13741;SDS011;8461;52.356;10.704;2023-02-12T00:21:08;13.37;;;9.90;;
13741;SDS011;8461;52.356;10.704;2023-02-12T00:23:34;12.40;;;9.43;;
13741;SDS011;8461;52.356;10.704;2023-02-12T00:26:00;11.93;;;8.30;;
13741;SDS011;8461;52.356;10.704;2023-02-12T00:28:29;11.13;;;8.93;;
13741;SDS011;8461;52.356;10.704;2023-02-12T00:30:55;10.37;;;9.20;;
13741;SDS011;8461;52.356;10.704;2023-02-12T00:33:20;10.63;;;8.80;;
13741;SDS011;8461;52.356;10.704;2023-02-12T00:35:53;12.00;;;8.90;;
13741;SDS011;8461;52.356;10.704;2023-02-12T00:38:22;11.73;;;9.17;;
13741;SDS011;8461;52.356;10.704;2023-02-12T00:40:48;9.17;;;8.07;;
13741;SDS011;8461;52.356;10.704;2023-02-12T00:43:13;12.93;;;9.33;;
13741;SDS011;8461;52.356;10.704;2023-02-12T00:45:39;13.13;;;9.20;;
13741;SDS011;8461;52.356;10.704;2023-02-12T00:48:04;12.77;;;9.33;;
13741;SDS011;8461;52.356;10.704;2023-02-12T00:50:30;9.93;;;8.23;;
13741;SDS011;8461;52.356;10.704;2023-02-12T00:52:55;10.97;;;9.23;;
13741;SDS011;8461;52.356;10.704;2023-02-12T00:55:21;12.47;;;9.90;;
13741;SDS011;8461;52.356;10.704;2023-02-12T00:57:46;10.47;;;8.63;;
13741;SDS011;8461;52.356;10.704;2023-02-12T01:00:12;10.87;;;8.60;;
13741;SDS011;8461;52.356;10.704;2023-02-12T01:02:39;11.70;;;9.57;;
13741;SDS011;8461;52.356;10.704;2023-02-12T01:05:05;9.20;;;7.40;;
13741;SDS011;8461;52.356;10.704;2023-02-12T01:07:30;10.93;;;8.30;;
13741;SDS011;8461;52.356;10.704;2023-02-12T01:09:56;10.83;;;9.17;;
13741;SDS011;8461;52.356;10.704;2023-02-12T01:12:21;13.90;;;9.70;;
13741;SDS011;8461;52.356;10.704;2023-02-12T01:14:47;11.67;;;8.57;;
13741;SDS011;8461;52.356;10.704;2023-02-12T01:17:12;11.33;;;8.90;;
13741;SDS011;8461;52.356;10.704;2023-02-12T01:19:38;11.90;;;8.73;;
13741;SDS011;8461;52.356;10.704;2023-02-12T01:22:03;12.40;;;8.77;;
13741;SDS011;8461;52.356;10.704;2023-02-12T01:24:29;11.83;;;9.47;;
13741;SDS011;8461;52.356;10.704;2023-02-12T01:26:55;12.40;;;8.97;;
13741;SDS011;8461;52.356;10.704;2023-02-12T01:29:20;11.93;;;8.60;;
13741;SDS011;8461;52.356;10.704;2023-02-12T01:31:46;9.60;;;8.33;;
13741;SDS011;8461;52.356;10.704;2023-02-12T01:34:11;10.57;;;7.87;;
13741;SDS011;8461;52.356;10.704;2023-02-12T01:36:37;9.70;;;8.70;;
13741;SDS011;8461;52.356;10.704;2023-02-12T01:39:04;11.97;;;8.57;;
13741;SDS011;8461;52.356;10.704;2023-02-12T01:41:32;12.00;;;9.10;;
13741;SDS011;8461;52.356;10.704;2023-02-12T01:46:47;10.40;;;7.83;;
13741;SDS011;8461;52.356;10.704;2023-02-12T01:49:16;11.87;;;9.40;;
13741;SDS011;8461;52.356;10.704;2023-02-12T01:52:09;10.17;;;8.60;;
13741;SDS011;8461;52.356;10.704;2023-02-12T01:54:44;11.20;;;8.07;;
13741;SDS011;8461;52.356;10.704;2023-02-12T01:57:10;10.60;;;8.47;;
13741;SDS011;8461;52.356;10.704;2023-02-12T01:59:38;9.80;;;8.80;;
13741;SDS011;8461;52.356;10.704;2023-02-12T02:02:04;8.90;;;8.00;;
13741;SDS011;8461;52.356;10.704;2023-02-12T02:04:32;10.50;;;8.80;;
13741;SDS011;8461;52.356;10.704;2023-02-12T02:07:04;11.73;;;8.10;;
13741;SDS011;8461;52.356;10.704;2023-02-12T02:09:32;9.17;;;7.13;;
13741;SDS011;8461;52.356;10.704;2023-02-12T02:12:00;9.73;;;8.37;;
13741;SDS011;8461;52.356;10.704;2023-02-12T02:14:44;9.77;;;7.93;;
13741;SDS011;8461;52.356;10.704;2023-02-12T02:26:15;12.83;;;7.90;;
13741;SDS011;8461;52.356;10.704;2023-02-12T02:29:10;13.17;;;8.40;;
13741;SDS011;8461;52.356;10.704;2023-02-12T02:32:07;12.00;;;7.77;;
13741;SDS011;8461;52.356;10.704;2023-02-12T02:35:02;10.37;;;7.20;;
13741;SDS011;8461;52.356;10.704;2023-02-12T02:37:36;8.73;;;7.23;;
13741;SDS011;8461;52.356;10.704;2023-02-12T02:40:08;7.83;;;6.67;;
13741;SDS011;8461;52.356;10.704;2023-02-12T02:45:21;9.63;;;6.73;;
13741;SDS011;8461;52.356;10.704;2023-02-12T02:48:34;9.27;;;6.60;;
13741;SDS011;8461;52.356;10.704;2023-02-12T02:50:42;9.57;;;6.57;;
13741;SDS011;8461;52.356;10.704;2023-02-12T02:53:13;12.00;;;6.63;;
13741;SDS011;8461;52.356;10.704;2023-02-12T02:55:48;9.00;;;6.13;;
13741;SDS011;8461;52.356;10.704;2023-02-12T02:58:30;8.60;;;5.90;;
13741;SDS011;8461;52.356;10.704;2023-02-12T03:01:04;9.87;;;6.90;;
13741;SDS011;8461;52.356;10.704;2023-02-12T03:03:44;9.50;;;7.30;;
13741;SDS011;8461;52.356;10.704;2023-02-12T03:06:33;7.37;;;6.20;;
13741;SDS011;8461;52.356;10.704;2023-02-12T03:09:23;9.97;;;7.00;;
13741;SDS011;8461;52.356;10.704;2023-02-12T03:11:58;7.80;;;5.93;;
13741;SDS011;8461;52.356;10.704;2023-02-12T03:14:30;9.97;;;6.67;;
13741;SDS011;8461;52.356;10.704;2023-02-12T03:17:03;8.63;;;6.20;;
13741;SDS011;8461;52.356;10.704;2023-02-12T03:19:36;8.50;;;6.67;;
13741;SDS011;8461;52.356;10.704;2023-02-12T03:22:19;9.33;;;7.10;;
13741;SDS011;8461;52.356;10.704;2023-02-12T03:24:55;11.30;;;7.47;;
13741;SDS011;8461;52.356;10.704;2023-02-12T03:27:30;11.43;;;8.30;;
13741;SDS011;8461;52.356;10.704;2023-02-12T03:30:02;12.37;;;7.67;;
13741;SDS011;8461;52.356;10.704;2023-02-12T03:43:00;11.73;;;8.43;;
13741;SDS011;8461;52.356;10.704;2023-02-12T03:45:36;12.70;;;7.80;;
13741;SDS011;8461;52.356;10.704;2023-02-12T03:50:55;9.93;;;7.73;;
13741;SDS011;8461;52.356;10.704;2023-02-12T03:53:42;11.03;;;8.43;;
13741;SDS011;8461;52.356;10.704;2023-02-12T03:56:16;11.57;;;8.20;;
13741;SDS011;8461;52.356;10.704;2023-02-12T03:58:46;12.90;;;8.07;;
13741;SDS011;8461;52.356;10.704;2023-02-12T04:01:12;10.47;;;8.17;;
13741;SDS011;8461;52.356;10.704;2023-02-12T04:03:38;16.03;;;9.20;;
13741;SDS011;8461;52.356;10.704;2023-02-12T04:06:04;14.10;;;8.13;;
13741;SDS011;8461;52.356;10.704;2023-02-12T04:08:41;11.60;;;7.70;;
13741;SDS011;8461;52.356;10.704;2023-02-12T04:11:12;11.47;;;8.30;;
13741;SDS011;8461;52.356;10.704;2023-02-12T04:14:17;11.27;;;8.00;;
13741;SDS011;8461;52.356;10.704;2023-02-12T04:17:05;11.80;;;7.47;;
13741;SDS011;8461;52.356;10.704;2023-02-12T04:29:56;10.20;;;6.90;;
13741;SDS011;8461;52.356;10.704;2023-02-12T04:32:32;9.00;;;7.00;;
13741;SDS011;8461;52.356;10.704;2023-02-12T04:37:45;8.50;;;6.20;;
13741;SDS011;8461;52.356;10.704;2023-02-12T04:40:16;9.67;;;7.10;;
13741;SDS011;8461;52.356;10.704;2023-02-12T04:42:43;9.60;;;7.40;;
13741;SDS011;8461;52.356;10.704;2023-02-12T04:45:11;8.23;;;6.23;;
13741;SDS011;8461;52.356;10.704;2023-02-12T04:47:39;7.57;;;5.73;;
13741;SDS011;8461;52.356;10.704;2023-02-12T04:50:05;9.37;;;6.50;;
13741;SDS011;8461;52.356;10.704;2023-02-12T04:52:31;11.50;;;6.37;;
13741;SDS011;8461;52.356;10.704;2023-02-12T04:54:57;10.33;;;7.37;;
13741;SDS011;8461;52.356;10.704;2023-02-12T04:57:22;10.17;;;7.60;;
13741;SDS011;8461;52.356;10.704;2023-02-12T04:59:48;15.97;;;8.37;;
13741;SDS011;8461;52.356;10.704;2023-02-12T05:02:13;13.87;;;7.93;;
13741;SDS011;8461;52.356;10.704;2023-02-12T05:04:39;11.67;;;7.50;;
13741;SDS011;8461;52.356;10.704;2023-02-12T05:07:04;13.70;;;8.00;;
13741;SDS011;8461;52.356;10.704;2023-02-12T05:09:30;12.77;;;7.83;;
13741;SDS011;8461;52.356;10.704;2023-02-12T05:11:55;10.83;;;7.93;;
13741;SDS011;8461;52.356;10.704;2023-02-12T05:14:23;10.40;;;7.37;;
13741;SDS011;8461;52.356;10.704;2023-02-12T05:16:49;12.67;;;7.97;;
13741;SDS011;8461;52.356;10.704;2023-02-12T05:19:15;11.60;;;7.83;;
13741;SDS011;8461;52.356;10.704;2023-02-12T05:21:41;13.53;;;8.43;;
13741;SDS011;8461;52.356;10.704;2023-02-12T05:24:06;13.53;;;8.20;;
13741;SDS011;8461;52.356;10.704;2023-02-12T05:26:32;12.60;;;7.63;;
13741;SDS011;8461;52.356;10.704;2023-02-12T05:28:58;13.80;;;9.17;;
13741;SDS011;8461;52.356;10.704;2023-02-12T05:31:24;11.43;;;7.93;;
13741;SDS011;8461;52.356;10.704;2023-02-12T05:33:50;12.00;;;8.37;;
13741;SDS011;8461;52.356;10.704;2023-02-12T05:36:17;13.83;;;8.03;;
13741;SDS011;8461;52.356;10.704;2023-02-12T05:38:44;11.97;;;8.37;;
13741;SDS011;8461;52.356;10.704;2023-02-12T05:41:12;11.60;;;7.60;;
13741;SDS011;8461;52.356;10.704;2023-02-12T05:43:40;14.13;;;8.83;;
13741;SDS011;8461;52.356;10.704;2023-02-12T05:46:06;11.33;;;7.37;;
13741;SDS011;8461;52.356;10.704;2023-02-12T05:48:32;12.90;;;8.30;;
13741;SDS011;8461;52.356;10.704;2023-02-12T05:51:06;12.83;;;7.43;;
13741;SDS011;8461;52.356;10.704;2023-02-12T05:53:34;15.00;;;7.07;;
13741;SDS011;8461;52.356;10.704;2023-02-12T05:56:07;10.63;;;7.03;;
13741;SDS011;8461;52.356;10.704;2023-02-12T05:58:34;11.87;;;7.60;;
13741;SDS011;8461;52.356;10.704;2023-02-12T06:01:00;11.53;;;7.03;;
13741;SDS011;8461;52.356;10.704;2023-02-12T06:03:26;10.57;;;6.77;;
13741;SDS011;8461;52.356;10.704;2023-02-12T06:05:51;11.40;;;6.57;;
13741;SDS011;8461;52.356;10.704;2023-02-12T06:08:17;11.80;;;7.47;;
13741;SDS011;8461;52.356;10.704;2023-02-12T06:10:43;10.83;;;7.73;;
13741;SDS011;8461;52.356;10.704;2023-02-12T06:13:08;11.90;;;7.87;;
13741;SDS011;8461;52.356;10.704;2023-02-12T06:15:37;12.07;;;7.17;;
13741;SDS011;8461;52.356;10.704;2023-02-12T06:18:02;11.10;;;7.13;;
13741;SDS011;8461;52.356;10.704;2023-02-12T06:20:28;10.80;;;7.33;;
13741;SDS011;8461;52.356;10.704;2023-02-12T06:22:54;11.33;;;6.77;;
13741;SDS011;8461;52.356;10.704;2023-02-12T06:25:19;9.17;;;6.23;;
13741;SDS011;8461;52.356;10.704;2023-02-12T06:27:45;11.73;;;7.90;;
13741;SDS011;8461;52.356;10.704;2023-02-12T06:30:11;14.37;;;8.60;;
13741;SDS011;8461;52.356;10.704;2023-02-12T06:32:37;14.63;;;8.33;;
13741;SDS011;8461;52.356;10.704;2023-02-12T06:35:02;16.53;;;8.93;;
13741;SDS011;8461;52.356;10.704;2023-02-12T06:37:28;16.33;;;8.87;;
13741;SDS011;8461;52.356;10.704;2023-02-12T06:39:54;18.93;;;9.73;;
13741;SDS011;8461;52.356;10.704;2023-02-12T06:42:19;24.80;;;10.40;;
13741;SDS011;8461;52.356;10.704;2023-02-12T06:44:45;23.40;;;10.53;;
13741;SDS011;8461;52.356;10.704;2023-02-12T06:47:11;20.87;;;10.10;;
13741;SDS011;8461;52.356;10.704;2023-02-12T06:49:37;22.73;;;10.50;;
13741;SDS011;8461;52.356;10.704;2023-02-12T06:52:02;27.27;;;10.83;;
13741;SDS011;8461;52.356;10.704;2023-02-12T06:54:28;21.80;;;10.73;;
13741;SDS011;8461;52.356;10.704;2023-02-12T06:56:53;25.77;;;11.07;;
13741;SDS011;8461;52.356;10.704;2023-02-12T06:59:19;25.60;;;11.43;;
13741;SDS011;8461;52.356;10.704;2023-02-12T07:01:45;23.43;;;10.50;;
13741;SDS011;8461;52.356;10.704;2023-02-12T07:04:10;31.20;;;12.77;;
13741;SDS011;8461;52.356;10.704;2023-02-12T07:06:36;25.10;;;11.77;;
13741;SDS011;8461;52.356;10.704;2023-02-12T07:09:02;34.37;;;13.93;;
13741;SDS011;8461;52.356;10.704;2023-02-12T07:11:33;32.77;;;12.77;;
13741;SDS011;8461;52.356;10.704;2023-02-12T07:14:01;35.80;;;14.20;;
13741;SDS011;8461;52.356;10.704;2023-02-12T07:16:27;42.33;;;14.10;;
13741;SDS011;8461;52.356;10.704;2023-02-12T07:18:52;34.50;;;13.00;;
13741;SDS011;8461;52.356;10.704;2023-02-12T07:21:18;35.60;;;14.23;;
13741;SDS011;8461;52.356;10.704;2023-02-12T07:23:45;37.53;;;14.40;;
13741;SDS011;8461;52.356;10.704;2023-02-12T07:26:12;37.13;;;15.43;;
13741;SDS011;8461;52.356;10.704;2023-02-12T07:28:39;44.63;;;16.00;;
13741;SDS011;8461;52.356;10.704;2023-02-12T07:31:12;37.20;;;14.70;;
13741;SDS011;8461;52.356;10.704;2023-02-12T07:33:39;34.43;;;14.17;;
13741;SDS011;8461;52.356;10.704;2023-02-12T07:36:07;36.83;;;14.87;;
13741;SDS011;8461;52.356;10.704;2023-02-12T07:38:35;40.80;;;15.50;;
13741;SDS011;8461;52.356;10.704;2023-02-12T07:41:19;38.87;;;14.37;;
13741;SDS011;8461;52.356;10.704;2023-02-12T07:43:47;47.43;;;15.13;;
13741;SDS011;8461;52.356;10.704;2023-02-12T07:46:39;40.50;;;14.97;;
13741;SDS011;8461;52.356;10.704;2023-02-12T07:49:05;35.23;;;14.60;;
13741;SDS011;8461;52.356;10.704;2023-02-12T07:51:32;46.53;;;16.50;;
13741;SDS011;8461;52.356;10.704;2023-02-12T07:53:59;39.33;;;16.03;;
13741;SDS011;8461;52.356;10.704;2023-02-12T07:56:26;37.97;;;15.23;;
13741;SDS011;8461;52.356;10.704;2023-02-12T07:58:56;37.67;;;14.73;;
13741;SDS011;8461;52.356;10.704;2023-02-12T08:01:24;38.90;;;14.93;;
13741;SDS011;8461;52.356;10.704;2023-02-12T08:03:52;35.50;;;14.50;;
13741;SDS011;8461;52.356;10.704;2023-02-12T08:06:20;35.10;;;15.20;;
13741;SDS011;8461;52.356;10.704;2023-02-12T08:08:51;30.10;;;14.37;;
13741;SDS011;8461;52.356;10.704;2023-02-12T08:11:18;42.03;;;15.40;;
13741;SDS011;8461;52.356;10.704;2023-02-12T08:13:44;39.33;;;17.40;;
13741;SDS011;8461;52.356;10.704;2023-02-12T08:16:11;36.37;;;15.73;;
13741;SDS011;8461;52.356;10.704;2023-02-12T08:18:40;46.30;;;21.50;;
13741;SDS011;8461;52.356;10.704;2023-02-12T08:21:07;34.67;;;16.33;;
13741;SDS011;8461;52.356;10.704;2023-02-12T08:23:34;27.40;;;12.40;;
13741;SDS011;8461;52.356;10.704;2023-02-12T08:26:19;31.50;;;14.37;;
13741;SDS011;8461;52.356;10.704;2023-02-12T08:28:47;30.80;;;14.90;;
13741;SDS011;8461;52.356;10.704;2023-02-12T08:31:16;30.93;;;15.10;;
13741;SDS011;8461;52.356;10.704;2023-02-12T08:33:47;25.00;;;12.77;;
13741;SDS011;8461;52.356;10.704;2023-02-12T08:36:15;32.90;;;16.23;;
13741;SDS011;8461;52.356;10.704;2023-02-12T08:38:43;28.47;;;15.27;;
13741;SDS011;8461;52.356;10.704;2023-02-12T08:41:14;28.07;;;12.67;;
13741;SDS011;8461;52.356;10.704;2023-02-12T08:43:41;26.50;;;12.77;;
13741;SDS011;8461;52.356;10.704;2023-02-12T08:46:12;27.77;;;13.50;;
13741;SDS011;8461;52.356;10.704;2023-02-12T08:48:40;23.13;;;13.20;;
13741;SDS011;8461;52.356;10.704;2023-02-12T08:51:10;24.03;;;12.40;;
13741;SDS011;8461;52.356;10.704;2023-02-12T08:53:39;28.83;;;13.93;;
13741;SDS011;8461;52.356;10.704;2023-02-12T08:56:07;23.60;;;11.90;;
13741;SDS011;8461;52.356;10.704;2023-02-12T08:58:33;23.10;;;11.33;;
13741;SDS011;8461;52.356;10.704;2023-02-12T09:00:59;23.43;;;12.03;;
13741;SDS011;8461;52.356;10.704;2023-02-12T09:03:25;28.17;;;12.30;;
13741;SDS011;8461;52.356;10.704;2023-02-12T09:05:50;27.97;;;11.77;;
13741;SDS011;8461;52.356;10.704;2023-02-12T09:08:16;24.27;;;11.43;;
13741;SDS011;8461;52.356;10.704;2023-02-12T09:10:42;18.03;;;11.67;;
13741;SDS011;8461;52.356;10.704;2023-02-12T09:13:09;21.87;;;10.93;;
13741;SDS011;8461;52.356;10.704;2023-02-12T09:15:39;18.83;;;9.77;;
13741;SDS011;8461;52.356;10.704;2023-02-12T09:18:06;20.87;;;10.97;;
13741;SDS011;8461;52.356;10.704;2023-02-12T09:20:32;20.53;;;9.53;;
13741;SDS011;8461;52.356;10.704;2023-02-12T09:22:58;18.77;;;9.33;;
13741;SDS011;8461;52.356;10.704;2023-02-12T09:25:24;18.07;;;9.10;;
13741;SDS011;8461;52.356;10.704;2023-02-12T09:27:50;19.30;;;9.47;;
13741;SDS011;8461;52.356;10.704;2023-02-12T09:30:15;18.80;;;9.87;;
13741;SDS011;8461;52.356;10.704;2023-02-12T09:32:41;20.07;;;9.80;;
13741;SDS011;8461;52.356;10.704;2023-02-12T09:35:07;18.97;;;9.63;;
13741;SDS011;8461;52.356;10.704;2023-02-12T09:37:32;17.93;;;9.47;;
13741;SDS011;8461;52.356;10.704;2023-02-12T09:39:58;18.53;;;9.67;;
13741;SDS011;8461;52.356;10.704;2023-02-12T09:45:02;16.00;;;9.80;;
13741;SDS011;8461;52.356;10.704;2023-02-12T09:50:36;15.13;;;8.87;;
13741;SDS011;8461;52.356;10.704;2023-02-12T09:53:08;14.50;;;7.60;;
13741;SDS011;8461;52.356;10.704;2023-02-12T09:55:38;13.87;;;7.20;;
13741;SDS011;8461;52.356;10.704;2023-02-12T09:58:06;14.17;;;7.07;;
13741;SDS011;8461;52.356;10.704;2023-02-12T10:00:38;15.97;;;7.73;;
13741;SDS011;8461;52.356;10.704;2023-02-12T10:03:04;15.70;;;9.00;;
13741;SDS011;8461;52.356;10.704;2023-02-12T10:05:43;12.80;;;7.87;;
13741;SDS011;8461;52.356;10.704;2023-02-12T10:08:34;15.40;;;8.17;;
13741;SDS011;8461;52.356;10.704;2023-02-12T10:14:09;17.80;;;9.57;;
13741;SDS011;8461;52.356;10.704;2023-02-12T10:28:20;20.87;;;11.73;;
13741;SDS011;8461;52.356;10.704;2023-02-12T10:30:51;18.40;;;10.63;;
13741;SDS011;8461;52.356;10.704;2023-02-12T10:36:08;22.57;;;10.80;;
13741;SDS011;8461;52.356;10.704;2023-02-12T10:38:41;22.87;;;11.07;;
13741;SDS011;8461;52.356;10.704;2023-02-12T10:41:11;22.07;;;11.23;;
13741;SDS011;8461;52.356;10.704;2023-02-12T10:43:39;19.67;;;11.43;;
13741;SDS011;8461;52.356;10.704;2023-02-12T10:46:05;24.10;;;12.00;;
13741;SDS011;8461;52.356;10.704;2023-02-12T10:48:32;23.57;;;11.57;;
13741;SDS011;8461;52.356;10.704;2023-02-12T10:58:51;24.27;;;12.97;;
13741;SDS011;8461;52.356;10.704;2023-02-12T11:01:20;27.30;;;16.60;;
13741;SDS011;8461;52.356;10.704;2023-02-12T11:03:54;25.07;;;14.77;;
13741;SDS011;8461;52.356;10.704;2023-02-12T11:06:22;29.17;;;16.67;;
13741;SDS011;8461;52.356;10.704;2023-02-12T11:08:53;33.70;;;18.70;;
13741;SDS011;8461;52.356;10.704;2023-02-12T11:11:27;42.40;;;23.43;;
13741;SDS011;8461;52.356;10.704;2023-02-12T11:13:59;39.77;;;24.00;;
13741;SDS011;8461;52.356;10.704;2023-02-12T11:16:30;38.03;;;20.53;;
13741;SDS011;8461;52.356;10.704;2023-02-12T11:19:05;37.27;;;19.77;;
13741;SDS011;8461;52.356;10.704;2023-02-12T11:21:33;39.43;;;19.97;;
13741;SDS011;8461;52.356;10.704;2023-02-12T11:26:45;36.17;;;18.47;;
13741;SDS011;8461;52.356;10.704;2023-02-12T11:29:18;33.87;;;18.67;;
13741;SDS011;8461;52.356;10.704;2023-02-12T11:32:01;29.47;;;17.03;;
13741;SDS011;8461;52.356;10.704;2023-02-12T11:34:29;32.60;;;16.97;;
13741;SDS011;8461;52.356;10.704;2023-02-12T11:36:55;30.50;;;16.57;;
13741;SDS011;8461;52.356;10.704;2023-02-12T11:41:51;33.10;;;16.07;;
13741;SDS011;8461;52.356;10.704;2023-02-12T11:46:46;31.47;;;16.33;;
13741;SDS011;8461;52.356;10.704;2023-02-12T11:49:20;34.67;;;16.40;;
13741;SDS011;8461;52.356;10.704;2023-02-12T11:51:49;28.53;;;15.60;;
13741;SDS011;8461;52.356;10.704;2023-02-12T11:54:24;24.40;;;14.30;;
13741;SDS011;8461;52.356;10.704;2023-02-12T11:56:52;32.83;;;16.07;;
13741;SDS011;8461;52.356;10.704;2023-02-12T11:59:35;32.30;;;16.93;;
13741;SDS011;8461;52.356;10.704;2023-02-12T12:02:27;32.27;;;17.63;;
13741;SDS011;8461;52.356;10.704;2023-02-12T12:05:11;36.30;;;16.17;;
13741;SDS011;8461;52.356;10.704;2023-02-12T12:07:41;30.17;;;16.27;;
13741;SDS011;8461;52.356;10.704;2023-02-12T12:10:20;27.57;;;15.47;;
13741;SDS011;8461;52.356;10.704;2023-02-12T12:13:04;28.70;;;13.73;;
13741;SDS011;8461;52.356;10.704;2023-02-12T12:15:42;29.17;;;15.20;;
13741;SDS011;8461;52.356;10.704;2023-02-12T12:18:44;29.97;;;16.23;;
13741;SDS011;8461;52.356;10.704;2023-02-12T12:21:39;28.47;;;15.53;;
13741;SDS011;8461;52.356;10.704;2023-02-12T12:24:48;28.90;;;16.47;;
13741;SDS011;8461;52.356;10.704;2023-02-12T12:27:27;32.70;;;17.17;;
13741;SDS011;8461;52.356;10.704;2023-02-12T12:33:15;27.90;;;15.33;;
13741;SDS011;8461;52.356;10.704;2023-02-12T12:35:53;29.30;;;15.80;;
13741;SDS011;8461;52.356;10.704;2023-02-12T12:46:44;34.27;;;16.27;;
13741;SDS011;8461;52.356;10.704;2023-02-12T12:49:16;30.43;;;16.40;;
13741;SDS011;8461;52.356;10.704;2023-02-12T13:10:47;33.90;;;18.50;;
13741;SDS011;8461;52.356;10.704;2023-02-12T13:18:53;35.40;;;17.90;;
13741;SDS011;8461;52.356;10.704;2023-02-12T13:21:55;32.90;;;15.60;;
13741;SDS011;8461;52.356;10.704;2023-02-12T13:24:37;36.27;;;17.10;;
13741;SDS011;8461;52.356;10.704;2023-02-12T13:27:09;32.17;;;15.90;;
13741;SDS011;8461;52.356;10.704;2023-02-12T13:29:42;33.83;;;16.47;;
13741;SDS011;8461;52.356;10.704;2023-02-12T13:32:13;30.23;;;15.00;;
13741;SDS011;8461;52.356;10.704;2023-02-12T13:34:46;27.10;;;13.80;;
13741;SDS011;8461;52.356;10.704;2023-02-12T13:37:19;30.67;;;17.37;;
13741;SDS011;8461;52.356;10.704;2023-02-12T13:39:53;27.33;;;14.53;;
13741;SDS011;8461;52.356;10.704;2023-02-12T13:45:15;31.80;;;16.63;;
13741;SDS011;8461;52.356;10.704;2023-02-12T13:53:14;26.50;;;14.07;;
13741;SDS011;8461;52.356;10.704;2023-02-12T14:01:02;25.27;;;13.17;;
13741;SDS011;8461;52.356;10.704;2023-02-12T14:03:34;23.87;;;13.30;;
13741;SDS011;8461;52.356;10.704;2023-02-12T14:08:39;25.37;;;14.20;;
13741;SDS011;8461;52.356;10.704;2023-02-12T14:11:08;23.70;;;12.90;;
13741;SDS011;8461;52.356;10.704;2023-02-12T14:13:44;25.30;;;14.73;;
13741;SDS011;8461;52.356;10.704;2023-02-12T14:16:18;24.83;;;13.13;;
13741;SDS011;8461;52.356;10.704;2023-02-12T14:19:34;21.47;;;12.67;;
13741;SDS011;8461;52.356;10.704;2023-02-12T14:21:57;24.07;;;12.77;;
13741;SDS011;8461;52.356;10.704;2023-02-12T14:27:44;23.93;;;11.40;;
13741;SDS011;8461;52.356;10.704;2023-02-12T14:37:57;41.57;;;19.33;;
13741;SDS011;8461;52.356;10.704;2023-02-12T14:43:01;24.40;;;12.97;;
13741;SDS011;8461;52.356;10.704;2023-02-12T14:45:29;23.43;;;11.60;;
13741;SDS011;8461;52.356;10.704;2023-02-12T14:47:57;33.83;;;18.70;;
13741;SDS011;8461;52.356;10.704;2023-02-12T14:50:24;20.37;;;11.10;;
13741;SDS011;8461;52.356;10.704;2023-02-12T14:53:20;20.37;;;10.20;;
13741;SDS011;8461;52.356;10.704;2023-02-12T14:55:49;18.33;;;10.60;;
13741;SDS011;8461;52.356;10.704;2023-02-12T14:58:19;16.67;;;11.80;;
13741;SDS011;8461;52.356;10.704;2023-02-12T15:00:48;19.30;;;12.53;;
13741;SDS011;8461;52.356;10.704;2023-02-12T15:03:25;21.27;;;11.80;;
13741;SDS011;8461;52.356;10.704;2023-02-12T15:06:20;18.70;;;10.67;;
13741;SDS011;8461;52.356;10.704;2023-02-12T15:09:00;18.63;;;9.60;;
13741;SDS011;8461;52.356;10.704;2023-02-12T15:14:19;17.70;;;10.70;;
13741;SDS011;8461;52.356;10.704;2023-02-12T15:17:01;18.87;;;9.77;;
13741;SDS011;8461;52.356;10.704;2023-02-12T15:19:43;16.50;;;9.10;;
13741;SDS011;8461;52.356;10.704;2023-02-12T15:22:22;15.10;;;9.27;;
13741;SDS011;8461;52.356;10.704;2023-02-12T15:24:53;19.20;;;9.70;;
13741;SDS011;8461;52.356;10.704;2023-02-12T15:27:42;15.70;;;10.10;;
13741;SDS011;8461;52.356;10.704;2023-02-12T15:30:15;15.30;;;8.83;;
13741;SDS011;8461;52.356;10.704;2023-02-12T15:32:43;18.27;;;10.10;;
13741;SDS011;8461;52.356;10.704;2023-02-12T15:35:25;17.90;;;9.27;;
13741;SDS011;8461;52.356;10.704;2023-02-12T15:37:53;17.03;;;9.57;;
13741;SDS011;8461;52.356;10.704;2023-02-12T15:40:20;15.60;;;9.47;;
13741;SDS011;8461;52.356;10.704;2023-02-12T15:42:56;18.00;;;10.33;;
13741;SDS011;8461;52.356;10.704;2023-02-12T15:45:28;14.57;;;9.17;;
13741;SDS011;8461;52.356;10.704;2023-02-12T15:48:08;15.67;;;9.77;;
13741;SDS011;8461;52.356;10.704;2023-02-12T15:51:01;13.60;;;8.97;;
13741;SDS011;8461;52.356;10.704;2023-02-12T15:53:28;15.13;;;8.63;;
13741;SDS011;8461;52.356;10.704;2023-02-12T15:55:55;14.70;;;10.13;;
13741;SDS011;8461;52.356;10.704;2023-02-12T15:58:23;13.93;;;9.43;;
13741;SDS011;8461;52.356;10.704;2023-02-12T16:00:48;14.53;;;8.73;;
13741;SDS011;8461;52.356;10.704;2023-02-12T16:05:51;15.93;;;9.13;;
13741;SDS011;8461;52.356;10.704;2023-02-12T16:08:21;12.67;;;8.83;;
13741;SDS011;8461;52.356;10.704;2023-02-12T16:10:48;16.97;;;9.80;;
13741;SDS011;8461;52.356;10.704;2023-02-12T16:13:18;14.07;;;8.27;;
13741;SDS011;8461;52.356;10.704;2023-02-12T16:18:35;11.20;;;7.97;;
13741;SDS011;8461;52.356;10.704;2023-02-12T16:21:02;12.27;;;8.33;;
13741;SDS011;8461;52.356;10.704;2023-02-12T16:23:29;10.10;;;7.90;;
13741;SDS011;8461;52.356;10.704;2023-02-12T16:25:55;10.93;;;7.70;;
13741;SDS011;8461;52.356;10.704;2023-02-12T16:28:23;13.60;;;8.80;;
13741;SDS011;8461;52.356;10.704;2023-02-12T16:30:55;12.13;;;8.73;;
13741;SDS011;8461;52.356;10.704;2023-02-12T16:38:47;17.07;;;9.97;;
13741;SDS011;8461;52.356;10.704;2023-02-12T16:41:28;15.43;;;10.67;;
13741;SDS011;8461;52.356;10.704;2023-02-12T16:46:48;20.27;;;14.07;;
13741;SDS011;8461;52.356;10.704;2023-02-12T16:49:17;22.30;;;14.90;;
13741;SDS011;8461;52.356;10.704;2023-02-12T16:51:45;21.37;;;15.50;;
13741;SDS011;8461;52.356;10.704;2023-02-12T16:56:57;20.20;;;13.97;;
13741;SDS011;8461;52.356;10.704;2023-02-12T16:59:23;20.83;;;14.10;;
13741;SDS011;8461;52.356;10.704;2023-02-12T17:01:55;19.10;;;13.37;;
13741;SDS011;8461;52.356;10.704;2023-02-12T17:04:28;20.13;;;13.47;;
13741;SDS011;8461;52.356;10.704;2023-02-12T17:06:54;18.53;;;12.73;;
13741;SDS011;8461;52.356;10.704;2023-02-12T17:09:21;19.13;;;12.93;;
13741;SDS011;8461;52.356;10.704;2023-02-12T17:11:46;16.40;;;12.00;;
13741;SDS011;8461;52.356;10.704;2023-02-12T17:14:13;16.00;;;11.53;;
13741;SDS011;8461;52.356;10.704;2023-02-12T17:16:41;14.20;;;10.67;;
13741;SDS011;8461;52.356;10.704;2023-02-12T17:19:07;14.90;;;10.50;;
13741;SDS011;8461;52.356;10.704;2023-02-12T17:21:34;14.23;;;10.00;;
13741;SDS011;8461;52.356;10.704;2023-02-12T17:24:04;17.03;;;10.47;;
13741;SDS011;8461;52.356;10.704;2023-02-12T17:26:47;15.47;;;10.93;;
13741;SDS011;8461;52.356;10.704;2023-02-12T17:29:14;14.23;;;9.87;;
13741;SDS011;8461;52.356;10.704;2023-02-12T17:31:43;14.60;;;10.13;;
13741;SDS011;8461;52.356;10.704;2023-02-12T17:34:09;16.60;;;10.07;;
13741;SDS011;8461;52.356;10.704;2023-02-12T17:36:35;14.13;;;10.30;;